createdAt,value
2023-03-15T00:03:15.006Z,99289.50
2023-03-15T00:08:16.974Z,99296.38
2023-03-15T00:13:18.427Z,99306.78
2023-03-15T00:18:20.439Z,99316.34
2023-03-15T00:23:21.858Z,99312.97
2023-03-15T00:28:23.304Z,99331.84
2023-03-15T00:33:24.713Z,99327.25
2023-03-15T00:38:26.170Z,99325.63
2023-03-15T00:43:27.543Z,99349.94
2023-03-15T00:48:28.918Z,99350.72
2023-03-15T00:53:30.718Z,99355.09
2023-03-15T00:58:32.103Z,99365.81
2023-03-15T01:03:36.646Z,99367.22
2023-03-15T01:08:38.258Z,99363.84
2023-03-15T01:13:39.712Z,99364.91
2023-03-15T01:18:41.251Z,99373.13
2023-03-15T01:23:42.675Z,99369.34
2023-03-15T01:28:44.061Z,99377.34
2023-03-15T01:33:45.491Z,99389.84
2023-03-15T01:38:46.972Z,99384.03
2023-03-15T01:43:48.376Z,99380.53
2023-03-15T01:49:02.251Z,99394.22
2023-03-15T01:54:08.076Z,99392.31
2023-03-15T01:59:10.938Z,99393.09
2023-03-15T02:04:15.350Z,99397.44
2023-03-15T02:09:17.661Z,99396.41
2023-03-15T02:14:19.057Z,99398.63
2023-03-15T02:19:29.306Z,99393.16
2023-03-15T02:24:33.841Z,99397.72
2023-03-15T02:29:35.240Z,99397.72
2023-03-15T02:34:36.643Z,99407.94
2023-03-15T02:39:38.107Z,99410.97
2023-03-15T02:44:40.177Z,99421.81
2023-03-15T02:49:43.478Z,99421.72
2023-03-15T02:54:44.927Z,99425.56
2023-03-15T02:59:46.357Z,99430.00
2023-03-15T03:04:48.002Z,99437.69
2023-03-15T03:09:49.386Z,99440.69
2023-03-15T03:14:50.759Z,99455.38
2023-03-15T03:19:52.456Z,99460.06
2023-03-15T03:24:53.876Z,99478.75
2023-03-15T03:29:55.294Z,99489.94
2023-03-15T03:34:56.694Z,99496.19
2023-03-15T03:39:58.213Z,99498.34
2023-03-15T03:44:59.589Z,99502.78
2023-03-15T03:50:00.951Z,99507.16
2023-03-15T03:55:03.603Z,99511.25
2023-03-15T04:00:05.661Z,99521.31
2023-03-15T04:05:07.536Z,99512.84
2023-03-15T04:10:09.444Z,99520.00
2023-03-15T04:15:11.591Z,99532.84
2023-03-15T04:20:13.073Z,99536.31
2023-03-15T04:25:14.555Z,99545.31
2023-03-15T04:30:16.051Z,99552.81
2023-03-15T04:35:17.494Z,99559.34
2023-03-15T04:40:18.954Z,99562.03
2023-03-15T04:45:20.352Z,99573.97
2023-03-15T04:50:21.903Z,99586.56
2023-03-15T04:55:23.370Z,99591.03
2023-03-15T05:00:24.852Z,99595.34
2023-03-15T05:05:26.349Z,99603.47
2023-03-15T05:10:29.673Z,99616.13
2023-03-15T05:15:31.301Z,99615.63
2023-03-15T05:20:32.693Z,99623.00
2023-03-15T05:25:34.068Z,99626.00
2023-03-15T05:30:35.464Z,99632.25
2023-03-15T05:35:36.875Z,99643.00
2023-03-15T05:40:38.288Z,99653.44
2023-03-15T05:45:40.033Z,99663.75
2023-03-15T05:50:41.465Z,99670.53
2023-03-15T05:55:42.869Z,99679.13
2023-03-15T06:00:44.301Z,99698.94
2023-03-15T06:05:45.678Z,99697.50
2023-03-15T06:10:48.085Z,99708.06
2023-03-15T06:15:49.452Z,99713.75
2023-03-15T06:20:50.818Z,99720.38
2023-03-15T06:25:52.235Z,99727.00
2023-03-15T06:30:53.663Z,99730.50
2023-03-15T06:35:55.099Z,99736.78
2023-03-15T06:40:58.839Z,99732.47
2023-03-15T06:46:00.360Z,99743.50
2023-03-15T06:51:01.792Z,99755.75
2023-03-15T06:56:03.213Z,99760.81
2023-03-15T07:01:04.829Z,99753.97
2023-03-15T07:06:06.219Z,99765.19
2023-03-15T07:11:07.597Z,99761.97
2023-03-15T07:16:09.004Z,99764.69
2023-03-15T07:21:10.512Z,99771.44
2023-03-15T07:26:11.891Z,99760.44
2023-03-15T07:31:13.290Z,99765.03
2023-03-15T07:36:14.709Z,99777.22
2023-03-15T07:41:16.114Z,99782.63
2023-03-15T07:46:17.509Z,99784.25
2023-03-15T07:51:18.942Z,99780.97
2023-03-15T07:56:20.344Z,99788.09
2023-03-15T08:01:21.750Z,99788.44
2023-03-15T08:06:23.138Z,99793.97
2023-03-15T08:11:24.527Z,99797.34
2023-03-15T08:16:25.954Z,99791.78
2023-03-15T08:21:27.415Z,99808.47
2023-03-15T08:26:28.796Z,99807.53
2023-03-15T08:31:30.927Z,99812.44
2023-03-15T08:36:33.061Z,99828.28
2023-03-15T08:41:34.782Z,99820.81
2023-03-15T08:46:36.222Z,99850.22
2023-03-15T08:51:37.723Z,99860.28
2023-03-15T08:56:39.186Z,99865.53
2023-03-15T09:01:40.655Z,99871.84
2023-03-15T09:06:42.141Z,99881.72
2023-03-15T09:11:43.634Z,99885.28
2023-03-15T09:16:45.081Z,99885.59
2023-03-15T09:21:47.079Z,99889.38
2023-03-15T09:26:48.493Z,99895.13
2023-03-15T09:31:49.925Z,99898.47
2023-03-15T09:36:52.908Z,99893.91
2023-03-15T09:41:55.337Z,99896.53
2023-03-15T09:47:08.815Z,99886.69
2023-03-15T09:52:16.000Z,99896.97
2023-03-15T09:57:19.742Z,99893.34
2023-03-15T10:02:30.877Z,99895.25
2023-03-15T10:07:32.834Z,99897.25
2023-03-15T10:12:41.889Z,99907.63
2023-03-15T10:17:58.460Z,99914.72
2023-03-15T10:23:03.756Z,99922.69
2023-03-15T10:28:12.791Z,99922.75
2023-03-15T10:33:36.880Z,99920.94
2023-03-15T10:38:38.454Z,99934.28
2023-03-15T10:43:41.395Z,99927.47
2023-03-15T10:48:59.792Z,99931.09
2023-03-15T10:54:11.262Z,99947.72
2023-03-15T10:59:20.869Z,99940.41
2023-03-15T11:04:23.662Z,99932.19
2023-03-15T11:09:26.512Z,99944.13
2023-03-15T11:14:37.860Z,99945.13
2023-03-15T11:19:42.038Z,99945.78
2023-03-15T11:24:43.511Z,99940.53
2023-03-15T11:29:49.938Z,99937.81
2023-03-15T11:34:59.120Z,99954.72
2023-03-15T11:40:18.130Z,99940.81
2023-03-15T11:45:42.432Z,99948.19
2023-03-15T11:50:45.334Z,99943.88
2023-03-15T11:55:50.731Z,99942.72
2023-03-15T12:00:54.957Z,99942.94
2023-03-15T12:06:01.785Z,99943.28
2023-03-15T12:11:10.607Z,99937.31
2023-03-15T12:16:12.153Z,99939.72
2023-03-15T12:21:24.236Z,99931.69
2023-03-15T12:26:27.562Z,99936.78
2023-03-15T12:31:56.116Z,99931.72
2023-03-15T12:37:08.747Z,99934.13
2023-03-15T12:42:29.032Z,99939.78
2023-03-15T12:47:46.768Z,99934.81
2023-03-15T12:52:53.385Z,99939.03
2023-03-15T12:57:56.227Z,99936.22
2023-03-15T13:03:10.425Z,99934.06
2023-03-15T13:08:25.484Z,99936.47
2023-03-15T13:13:32.825Z,99946.66
2023-03-15T13:18:36.607Z,99936.72
2023-03-15T13:23:38.523Z,99945.41
2023-03-15T13:28:42.265Z,99944.09
2023-03-15T13:33:49.565Z,99936.16
2023-03-15T13:38:54.763Z,99936.31
2023-03-15T13:44:02.055Z,99938.47
2023-03-15T13:49:03.468Z,99950.31
2023-03-15T13:54:17.448Z,99948.06
2023-03-15T13:59:18.845Z,99951.94
2023-03-15T14:04:20.232Z,99954.13
2023-03-15T14:09:23.362Z,99951.94
2023-03-15T14:14:26.500Z,99949.16
2023-03-15T14:19:32.463Z,99978.16
2023-03-15T14:24:38.705Z,99971.59
2023-03-15T14:29:50.879Z,99983.50
2023-03-15T14:34:58.332Z,99988.59
2023-03-15T14:40:08.855Z,100001.94
2023-03-15T14:45:11.682Z,99990.28
2023-03-15T14:50:16.860Z,99985.06
2023-03-15T14:55:20.786Z,99982.41
2023-03-15T15:00:22.236Z,99976.94
2023-03-15T15:05:26.362Z,99989.22
2023-03-15T15:10:27.761Z,99991.59
2023-03-15T15:15:29.139Z,99993.16
2023-03-15T15:20:30.515Z,99994.31
2023-03-15T15:25:33.665Z,99991.34
2023-03-15T15:30:35.059Z,100000.38
2023-03-15T15:35:36.444Z,100006.34
2023-03-15T15:40:37.988Z,100011.81
2023-03-15T15:45:39.630Z,100018.91
2023-03-15T15:50:41.063Z,100022.03
2023-03-15T15:55:43.947Z,100029.50
2023-03-15T16:00:45.326Z,100033.53
2023-03-15T16:05:46.799Z,100041.66
2023-03-15T16:10:48.180Z,100052.50
2023-03-15T16:15:49.601Z,100052.84
2023-03-15T16:20:51.017Z,100067.09
2023-03-15T16:25:55.364Z,100068.41
2023-03-15T16:30:56.776Z,100071.72
2023-03-15T16:35:58.192Z,100078.16
2023-03-15T16:40:59.957Z,100095.25
2023-03-15T16:46:01.381Z,100097.38
2023-03-15T16:51:05.048Z,100101.44
2023-03-15T16:56:09.084Z,100106.47
2023-03-15T17:01:10.999Z,100129.53
2023-03-15T17:06:20.136Z,100127.88
2023-03-15T17:11:21.605Z,100142.97
2023-03-15T17:16:23.316Z,100151.28
2023-03-15T17:21:25.338Z,100155.94
2023-03-15T17:26:29.052Z,100157.00
2023-03-15T17:31:30.632Z,100173.50
2023-03-15T17:36:37.484Z,100185.63
2023-03-15T17:41:38.948Z,100191.91
2023-03-15T17:46:40.444Z,100204.19
2023-03-15T17:51:41.892Z,100219.84
2023-03-15T17:56:43.306Z,100224.16
2023-03-15T18:01:46.238Z,100229.72
2023-03-15T18:06:47.672Z,100240.41
2023-03-15T18:11:49.160Z,100246.03
2023-03-15T18:16:50.580Z,100249.94
2023-03-15T18:21:52.041Z,100261.09
2023-03-15T18:26:53.417Z,100265.00
2023-03-15T18:31:54.858Z,100258.59
2023-03-15T18:36:56.315Z,100269.16
2023-03-15T18:41:57.732Z,100264.19
2023-03-15T18:46:59.127Z,100271.78
2023-03-15T18:52:01.381Z,100278.44
2023-03-15T18:57:02.763Z,100279.03
2023-03-15T19:02:04.755Z,100286.31
2023-03-15T19:07:06.214Z,100287.72
2023-03-15T19:12:07.586Z,100299.13
2023-03-15T19:17:09.133Z,100303.28
2023-03-15T19:22:10.576Z,100315.06
2023-03-15T19:27:11.992Z,100314.22
2023-03-15T19:32:13.366Z,100314.38
2023-03-15T19:37:14.971Z,100315.91
2023-03-15T19:42:16.418Z,100325.16
2023-03-15T19:47:17.815Z,100331.56
2023-03-15T19:52:19.737Z,100338.81
2023-03-15T19:57:21.222Z,100343.13
2023-03-15T20:02:22.629Z,100350.50
2023-03-15T20:07:23.991Z,100356.19
2023-03-15T20:12:25.362Z,100360.00
2023-03-15T20:17:27.369Z,100368.69
2023-03-15T20:22:28.746Z,100370.22
2023-03-15T20:27:33.791Z,100374.84
2023-03-15T20:32:35.354Z,100369.50
2023-03-15T20:37:37.512Z,100377.94
2023-03-15T20:42:39.102Z,100396.97
2023-03-15T20:47:41.198Z,100401.72
2023-03-15T20:52:43.213Z,100412.53
2023-03-15T20:57:44.631Z,100417.97
2023-03-15T21:02:49.104Z,100415.63
2023-03-15T21:07:50.506Z,100425.75
2023-03-15T21:12:51.875Z,100426.78
2023-03-15T21:17:53.245Z,100440.22
2023-03-15T21:22:54.607Z,100442.00
2023-03-15T21:27:56.336Z,100438.91
2023-03-15T21:32:57.833Z,100446.31
2023-03-15T21:37:59.216Z,100446.41
2023-03-15T21:43:00.681Z,100451.28
2023-03-15T21:48:02.074Z,100451.75
2023-03-15T21:53:03.620Z,100453.53
2023-03-15T21:58:05.056Z,100465.91
2023-03-15T22:03:06.504Z,100462.81
2023-03-15T22:08:07.919Z,100476.59
2023-03-15T22:13:09.307Z,100468.06
2023-03-15T22:18:10.790Z,100480.41
2023-03-15T22:23:12.172Z,100472.94
2023-03-15T22:28:13.645Z,100467.47
2023-03-15T22:33:18.526Z,100476.25
2023-03-15T22:38:19.903Z,100491.34
2023-03-15T22:43:21.283Z,100482.88
2023-03-15T22:48:23.141Z,100491.06
2023-03-15T22:53:24.663Z,100503.34
2023-03-15T22:58:26.137Z,100502.03
2023-03-15T23:03:27.674Z,100510.38
2023-03-15T23:08:29.052Z,100511.31
2023-03-15T23:13:31.001Z,100512.28
2023-03-15T23:18:35.295Z,100511.34
2023-03-15T23:23:38.472Z,100505.13
2023-03-15T23:28:39.871Z,100504.53
2023-03-15T23:33:41.312Z,100515.09
2023-03-15T23:38:42.758Z,100512.72
2023-03-15T23:43:44.138Z,100510.38
2023-03-15T23:48:45.591Z,100523.91
2023-03-15T23:53:47.460Z,100525.66
2023-03-15T23:58:48.827Z,100529.81
